Time,TemperatureF,DewpointF,PressureIn,WindDirection,WindDirectionDegrees,WindSpeedMPH,WindSpeedGustMPH,Humidity,HourlyPrecipIn,Conditions,Clouds,dailyrainin,SoftwareType,DateUTC
2013-03-23 00:00:00,27.3,22.5,29.98,NNW,331,0.0,1.0,82,0.00,,,0.00,Weather View 32 v70,2013-03-23 04:00:00,
2013-03-23 00:05:00,27.2,22.7,29.98,NNW,330,0.0,1.0,83,0.00,,,0.00,Weather View 32 v70,2013-03-23 04:05:00,
2013-03-23 00:10:00,27.2,22.7,29.98,NNW,331,0.0,1.0,83,0.00,,,0.00,Weather View 32 v70,2013-03-23 04:10:00,
2013-03-23 00:15:00,27.2,22.7,29.98,NNW,331,0.0,1.0,83,0.00,,,0.00,Weather View 32 v70,2013-03-23 04:15:00,
2013-03-23 00:20:00,27.2,22.7,29.98,NNW,331,0.0,1.0,83,0.00,,,0.00,Weather View 32 v70,2013-03-23 04:20:00,
2013-03-23 00:25:00,27.1,22.6,29.99,NNW,330,0.0,1.0,83,0.00,,,0.00,Weather View 32 v70,2013-03-23 04:25:00,
2013-03-23 00:30:00,27.0,22.5,29.98,NNW,331,0.0,1.0,83,0.00,,,0.00,Weather View 32 v70,2013-03-23 04:30:00,
2013-03-23 00:35:00,27.0,22.5,29.98,NNW,331,0.0,1.0,83,0.00,,,0.00,Weather View 32 v70,2013-03-23 04:35:00,
2013-03-23 00:40:00,26.9,22.4,29.98,NNW,331,0.0,0.0,83,0.00,,,0.00,Weather View 32 v70,2013-03-23 04:40:00,
2013-03-23 00:45:00,26.9,22.4,29.98,NNW,331,0.0,0.0,83,0.00,,,0.00,Weather View 32 v70,2013-03-23 04:45:00,
2013-03-23 00:50:00,26.8,22.3,29.98,NNW,330,0.0,0.0,83,0.00,,,0.00,Weather View 32 v70,2013-03-23 04:50:00,
2013-03-23 00:55:00,26.7,22.2,29.99,NNW,330,0.0,0.0,83,0.00,,,0.00,Weather View 32 v70,2013-03-23 04:55:00,
2013-03-23 01:00:00,26.6,22.1,29.99,NNW,330,0.0,0.0,83,0.00,,,0.00,Weather View 32 v70,2013-03-23 05:00:00,
2013-03-23 01:05:00,26.6,22.1,29.99,NNW,331,0.0,2.0,83,0.00,,,0.00,Weather View 32 v70,2013-03-23 05:05:00,
2013-03-23 01:10:00,26.5,22.0,29.99,NNW,331,0.0,2.0,83,0.00,,,0.00,Weather View 32 v70,2013-03-23 05:10:00,
2013-03-23 01:15:00,26.4,21.9,29.99,NNW,331,0.0,3.0,83,0.00,,,0.00,Weather View 32 v70,2013-03-23 05:15:00,
2013-03-23 01:20:00,26.3,22.1,29.99,NNW,331,0.0,3.0,84,0.00,,,0.00,Weather View 32 v70,2013-03-23 05:20:00,
2013-03-23 01:25:00,26.3,22.1,29.99,NNW,331,0.0,3.0,84,0.00,,,0.00,Weather View 32 v70,2013-03-23 05:25:00,
2013-03-23 01:30:00,26.2,22.0,29.99,NNW,330,0.0,3.0,84,0.00,,,0.00,Weather View 32 v70,2013-03-23 05:30:00,
2013-03-23 01:35:00,26.2,22.0,29.99,NNW,330,0.0,3.0,84,0.00,,,0.00,Weather View 32 v70,2013-03-23 05:35:00,
2013-03-23 01:41:00,26.1,21.9,29.98,NW,326,0.0,4.0,84,0.00,,,0.00,Weather View 32 v70,2013-03-23 05:41:00,
2013-03-23 01:46:00,26.1,21.9,29.99,NW,326,0.0,4.0,84,0.00,,,0.00,Weather View 32 v70,2013-03-23 05:46:00,
2013-03-23 01:51:00,26.0,22.1,29.99,NW,326,0.0,4.0,85,0.00,,,0.00,Weather View 32 v70,2013-03-23 05:51:00,
2013-03-23 01:56:00,26.0,22.1,29.99,NW,326,0.0,4.0,85,0.00,,,0.00,Weather View 32 v70,2013-03-23 05:56:00,
2013-03-23 02:01:00,25.9,22.0,29.98,NW,326,0.0,4.0,85,0.00,,,0.00,Weather View 32 v70,2013-03-23 06:01:00,
2013-03-23 02:06:00,25.8,21.9,29.99,NW,326,0.0,4.0,85,0.00,,,0.00,Weather View 32 v70,2013-03-23 06:06:00,
2013-03-23 02:11:00,25.7,21.8,29.99,NW,326,0.0,4.0,85,0.00,,,0.00,Weather View 32 v70,2013-03-23 06:11:00,
2013-03-23 02:16:00,25.7,21.8,29.99,NW,326,0.0,4.0,85,0.00,,,0.00,Weather View 32 v70,2013-03-23 06:16:00,
2013-03-23 02:21:00,25.6,21.7,29.99,NW,326,0.0,4.0,85,0.00,,,0.00,Weather View 32 v70,2013-03-23 06:21:00,
2013-03-23 02:26:00,25.6,21.7,29.99,NW,326,0.0,4.0,85,0.00,,,0.00,Weather View 32 v70,2013-03-23 06:26:00,
2013-03-23 02:31:00,25.5,21.9,29.99,NW,326,2.0,4.0,86,0.00,,,0.00,Weather View 32 v70,2013-03-23 06:31:00,
2013-03-23 02:36:00,25.5,21.9,29.99,NW,326,0.0,4.0,86,0.00,,,0.00,Weather View 32 v70,2013-03-23 06:36:00,
2013-03-23 02:41:00,25.5,21.9,29.99,NW,326,0.0,4.0,86,0.00,,,0.00,Weather View 32 v70,2013-03-23 06:41:00,
2013-03-23 02:46:00,25.5,21.9,29.99,NW,326,0.0,4.0,86,0.00,,,0.00,Weather View 32 v70,2013-03-23 06:46:00,
2013-03-23 02:51:00,25.4,21.8,29.99,NW,326,0.0,4.0,86,0.00,,,0.00,Weather View 32 v70,2013-03-23 06:51:00,
2013-03-23 02:56:00,25.4,21.8,29.99,NW,326,0.0,4.0,86,0.00,,,0.00,Weather View 32 v70,2013-03-23 06:56:00,
2013-03-23 03:01:00,25.3,21.7,29.99,NW,326,0.0,4.0,86,0.00,,,0.00,Weather View 32 v70,2013-03-23 07:01:00,
2013-03-23 03:07:00,25.2,21.6,29.99,NW,326,0.0,4.0,86,0.00,,,0.00,Weather View 32 v70,2013-03-23 07:07:00,
2013-03-23 03:12:00,25.1,21.5,29.99,NW,326,0.0,4.0,86,0.00,,,0.00,Weather View 32 v70,2013-03-23 07:12:00,
2013-03-23 03:17:00,25.1,21.5,29.99,NW,326,0.0,4.0,86,0.00,,,0.00,Weather View 32 v70,2013-03-23 07:17:00,
2013-03-23 03:22:00,25.0,21.4,29.99,NW,326,0.0,4.0,86,0.00,,,0.00,Weather View 32 v70,2013-03-23 07:22:00,
2013-03-23 03:27:00,24.8,21.2,29.99,NW,326,0.0,4.0,86,0.00,,,0.00,Weather View 32 v70,2013-03-23 07:27:00,
2013-03-23 03:32:00,24.7,21.4,29.98,NW,326,0.0,2.0,87,0.00,,,0.00,Weather View 32 v70,2013-03-23 07:32:00,
2013-03-23 03:37:00,24.5,20.9,29.98,NW,326,0.0,2.0,86,0.00,,,0.00,Weather View 32 v70,2013-03-23 07:37:00,
2013-03-23 03:42:00,24.4,21.1,29.98,NW,326,0.0,2.0,87,0.00,,,0.00,Weather View 32 v70,2013-03-23 07:42:00,
2013-03-23 03:47:00,24.1,20.8,29.98,NW,326,0.0,2.0,87,0.00,,,0.00,Weather View 32 v70,2013-03-23 07:47:00,
2013-03-23 03:52:00,23.9,20.6,29.98,NW,326,0.0,1.0,87,0.00,,,0.00,Weather View 32 v70,2013-03-23 07:52:00,
2013-03-23 03:58:00,23.7,20.4,29.98,NW,326,0.0,1.0,87,0.00,,,0.00,Weather View 32 v70,2013-03-23 07:58:00,
2013-03-23 04:03:00,23.5,20.2,29.98,NW,326,0.0,1.0,87,0.00,,,0.00,Weather View 32 v70,2013-03-23 08:03:00,
2013-03-23 04:08:00,23.3,20.3,29.98,NW,326,0.0,1.0,88,0.00,,,0.00,Weather View 32 v70,2013-03-23 08:08:00,
2013-03-23 04:13:00,23.1,20.1,29.98,NW,326,0.0,0.0,88,0.00,,,0.00,Weather View 32 v70,2013-03-23 08:13:00,
2013-03-23 04:18:00,23.1,20.1,29.98,NW,326,0.0,0.0,88,0.00,,,0.00,Weather View 32 v70,2013-03-23 08:18:00,
2013-03-23 04:23:00,23.1,20.3,29.98,NW,326,0.0,0.0,89,0.00,,,0.00,Weather View 32 v70,2013-03-23 08:23:00,
2013-03-23 04:28:00,23.2,20.7,29.98,NW,326,0.0,0.0,90,0.00,,,0.00,Weather View 32 v70,2013-03-23 08:28:00,
2013-03-23 04:33:00,23.4,20.9,29.98,NW,326,0.0,0.0,90,0.00,,,0.00,Weather View 32 v70,2013-03-23 08:33:00,
2013-03-23 04:38:00,23.4,20.9,29.98,NW,326,0.0,0.0,90,0.00,,,0.00,Weather View 32 v70,2013-03-23 08:38:00,
2013-03-23 04:43:00,23.5,21.0,29.98,NW,326,0.0,0.0,90,0.00,,,0.00,Weather View 32 v70,2013-03-23 08:43:00,
2013-03-23 04:48:00,23.5,21.0,29.98,NW,326,0.0,0.0,90,0.00,,,0.00,Weather View 32 v70,2013-03-23 08:48:00,
2013-03-23 04:53:00,23.5,21.0,29.98,NW,326,0.0,0.0,90,0.00,,,0.00,Weather View 32 v70,2013-03-23 08:53:00,
2013-03-23 04:58:00,23.4,20.9,29.98,NW,326,0.0,0.0,90,0.00,,,0.00,Weather View 32 v70,2013-03-23 08:58:00,
2013-03-23 05:03:00,23.3,20.5,29.98,NW,326,0.0,0.0,89,0.00,,,0.00,Weather View 32 v70,2013-03-23 09:03:00,
2013-03-23 05:08:00,23.2,20.7,29.98,NW,326,0.0,0.0,90,0.00,,,0.00,Weather View 32 v70,2013-03-23 09:08:00,
2013-03-23 05:13:00,23.1,20.3,29.98,NW,326,0.0,0.0,89,0.00,,,0.00,Weather View 32 v70,2013-03-23 09:13:00,
2013-03-23 05:18:00,22.9,20.1,29.98,NW,326,0.0,0.0,89,0.00,,,0.00,Weather View 32 v70,2013-03-23 09:18:00,
2013-03-23 05:23:00,22.6,19.8,29.99,NW,326,0.0,0.0,89,0.00,,,0.00,Weather View 32 v70,2013-03-23 09:23:00,
2013-03-23 05:28:00,22.3,19.6,29.98,NW,326,0.0,0.0,89,0.00,,,0.00,Weather View 32 v70,2013-03-23 09:28:00,
2013-03-23 05:33:00,22.0,19.3,29.99,NW,326,0.0,0.0,89,0.00,,,0.00,Weather View 32 v70,2013-03-23 09:33:00,
2013-03-23 05:38:00,21.7,19.2,29.98,NW,326,0.0,0.0,90,0.00,,,0.00,Weather View 32 v70,2013-03-23 09:38:00,
2013-03-23 05:43:00,21.5,19.0,29.98,NW,326,0.0,0.0,90,0.00,,,0.00,Weather View 32 v70,2013-03-23 09:43:00,
2013-03-23 05:48:00,21.2,18.7,29.99,NW,326,0.0,0.0,90,0.00,,,0.00,Weather View 32 v70,2013-03-23 09:48:00,
2013-03-23 05:53:00,20.9,18.4,29.99,NW,326,0.0,0.0,90,0.00,,,0.00,Weather View 32 v70,2013-03-23 09:53:00,
2013-03-23 05:58:00,20.7,18.2,29.99,NW,326,0.0,0.0,90,0.00,,,0.00,Weather View 32 v70,2013-03-23 09:58:00,
2013-03-23 06:03:00,20.5,18.0,29.99,NW,326,0.0,0.0,90,0.00,,,0.00,Weather View 32 v70,2013-03-23 10:03:00,
2013-03-23 06:08:00,20.3,17.8,29.99,NW,326,0.0,0.0,90,0.00,,,0.00,Weather View 32 v70,2013-03-23 10:08:00,
2013-03-23 06:13:00,20.2,18.0,29.99,NW,326,0.0,0.0,91,0.00,,,0.00,Weather View 32 v70,2013-03-23 10:13:00,
2013-03-23 06:18:00,20.1,17.9,29.99,NW,326,0.0,0.0,91,0.00,,,0.00,Weather View 32 v70,2013-03-23 10:18:00,
2013-03-23 06:23:00,19.9,17.7,29.99,NW,326,0.0,0.0,91,0.00,,,0.00,Weather View 32 v70,2013-03-23 10:23:00,
2013-03-23 06:28:00,19.8,17.6,30.00,NW,326,0.0,0.0,91,0.00,,,0.00,Weather View 32 v70,2013-03-23 10:28:00,
2013-03-23 06:33:00,19.7,17.5,30.00,NW,326,0.0,0.0,91,0.00,,,0.00,Weather View 32 v70,2013-03-23 10:33:00,
2013-03-23 06:38:00,19.7,17.5,30.00,NW,326,0.0,0.0,91,0.00,,,0.00,Weather View 32 v70,2013-03-23 10:38:00,
2013-03-23 06:43:00,19.9,18.0,30.00,NW,326,0.0,0.0,92,0.00,,,0.00,Weather View 32 v70,2013-03-23 10:43:00,
2013-03-23 06:48:00,20.3,18.4,30.00,NW,326,0.0,0.0,92,0.00,,,0.00,Weather View 32 v70,2013-03-23 10:48:00,
2013-03-23 06:53:00,20.5,18.8,30.00,NW,326,0.0,0.0,93,0.00,,,0.00,Weather View 32 v70,2013-03-23 10:53:00,
2013-03-23 06:58:00,20.6,18.6,30.00,NW,326,0.0,0.0,92,0.00,,,0.00,Weather View 32 v70,2013-03-23 10:58:00,
2013-03-23 07:03:00,20.6,18.6,30.00,NW,326,0.0,0.0,92,0.00,,,0.00,Weather View 32 v70,2013-03-23 11:03:00,
2013-03-23 07:09:00,20.3,18.4,30.01,NW,326,0.0,0.0,92,0.00,,,0.00,Weather View 32 v70,2013-03-23 11:09:00,
2013-03-23 07:14:00,20.2,18.2,30.01,NW,326,0.0,0.0,92,0.00,,,0.00,Weather View 32 v70,2013-03-23 11:14:00,
2013-03-23 07:19:00,20.2,18.2,30.01,NW,326,0.0,0.0,92,0.00,,,0.00,Weather View 32 v70,2013-03-23 11:19:00,
2013-03-23 07:24:00,19.9,18.0,30.01,NW,326,0.0,0.0,92,0.00,,,0.00,Weather View 32 v70,2013-03-23 11:24:00,
2013-03-23 07:29:00,19.7,17.8,30.01,NW,326,0.0,0.0,92,0.00,,,0.00,Weather View 32 v70,2013-03-23 11:29:00,
2013-03-23 07:34:00,19.7,17.8,30.02,NW,326,0.0,0.0,92,0.00,,,0.00,Weather View 32 v70,2013-03-23 11:34:00,
2013-03-23 07:39:00,19.7,18.0,30.02,NW,326,0.0,0.0,93,0.00,,,0.00,Weather View 32 v70,2013-03-23 11:39:00,
2013-03-23 07:44:00,19.8,18.1,30.02,NW,326,0.0,0.0,93,0.00,,,0.00,Weather View 32 v70,2013-03-23 11:44:00,
2013-03-23 07:49:00,20.0,18.3,30.02,NW,326,0.0,0.0,93,0.00,,,0.00,Weather View 32 v70,2013-03-23 11:49:00,
2013-03-23 07:54:00,20.1,18.4,30.02,NW,326,0.0,0.0,93,0.00,,,0.00,Weather View 32 v70,2013-03-23 11:54:00,
2013-03-23 07:59:00,20.3,18.6,30.02,NW,326,0.0,0.0,93,0.00,,,0.00,Weather View 32 v70,2013-03-23 11:59:00,
2013-03-23 08:04:00,20.6,19.1,30.02,NW,326,0.0,0.0,94,0.00,,,0.00,Weather View 32 v70,2013-03-23 12:04:00,
2013-03-23 08:09:00,20.7,19.0,30.02,NW,326,0.0,0.0,93,0.00,,,0.00,Weather View 32 v70,2013-03-23 12:09:00,
2013-03-23 08:15:00,20.7,19.0,30.02,NW,326,0.0,0.0,93,0.00,,,0.00,Weather View 32 v70,2013-03-23 12:15:00,
2013-03-23 08:19:00,20.8,19.1,30.02,NW,326,0.0,1.0,93,0.00,,,0.00,Weather View 32 v70,2013-03-23 12:19:00,
2013-03-23 08:25:00,21.0,19.5,30.03,NW,326,0.0,1.0,94,0.00,,,0.00,Weather View 32 v70,2013-03-23 12:25:00,
2013-03-23 08:30:00,21.1,19.6,30.03,NW,326,0.0,1.0,94,0.00,,,0.00,Weather View 32 v70,2013-03-23 12:30:00,
2013-03-23 08:35:00,21.5,20.0,30.03,NW,326,0.0,1.0,94,0.00,,,0.00,Weather View 32 v70,2013-03-23 12:35:00,
2013-03-23 08:40:00,22.1,20.9,30.03,NW,326,0.0,1.0,95,0.00,,,0.00,Weather View 32 v70,2013-03-23 12:40:00,
2013-03-23 08:45:00,22.8,21.6,30.03,NW,326,0.0,1.0,95,0.00,,,0.00,Weather View 32 v70,2013-03-23 12:45:00,
2013-03-23 08:50:00,23.4,22.2,30.03,NW,326,0.0,1.0,95,0.00,,,0.00,Weather View 32 v70,2013-03-23 12:50:00,
2013-03-23 08:59:00,24.8,23.8,30.04,NW,326,0.0,1.0,96,0.00,,,0.00,Weather View 32 v70,2013-03-23 12:59:00,
2013-03-23 09:04:00,25.6,24.4,30.04,NW,326,0.0,1.0,95,0.00,,,0.00,Weather View 32 v70,2013-03-23 13:04:00,
2013-03-23 09:09:00,26.3,25.1,30.04,NW,326,0.0,1.0,95,0.00,,,0.00,Weather View 32 v70,2013-03-23 13:09:00,
2013-03-23 09:14:00,27.2,25.7,30.04,NW,326,0.0,1.0,94,0.00,,,0.00,Weather View 32 v70,2013-03-23 13:14:00,
2013-03-23 09:19:00,28.0,26.2,30.04,NW,326,0.0,0.0,93,0.00,,,0.00,Weather View 32 v70,2013-03-23 13:19:00,
2013-03-23 09:24:00,28.8,26.2,30.04,SW,235,0.0,5.0,90,0.00,,,0.00,Weather View 32 v70,2013-03-23 13:24:00,
2013-03-23 09:29:00,29.4,25.4,30.04,NW,319,0.0,5.0,85,0.00,,,0.00,Weather View 32 v70,2013-03-23 13:29:00,
2013-03-23 09:34:00,29.8,25.3,30.04,WNW,295,0.0,7.0,83,0.00,,,0.00,Weather View 32 v70,2013-03-23 13:34:00,
2013-03-23 09:39:00,30.1,25.3,30.04,WNW,286,0.0,7.0,82,0.00,,,0.00,Weather View 32 v70,2013-03-23 13:39:00,
2013-03-23 09:44:00,30.2,24.8,30.04,NNE,22,0.0,7.0,80,0.00,,,0.00,Weather View 32 v70,2013-03-23 13:44:00,
2013-03-23 09:49:00,30.5,24.8,30.04,NNE,22,0.0,7.0,79,0.00,,,0.00,Weather View 32 v70,2013-03-23 13:49:00,
2013-03-23 09:54:00,30.9,24.8,30.04,WNW,292,1.0,7.0,78,0.00,,,0.00,Weather View 32 v70,2013-03-23 13:54:00,
2013-03-23 09:59:00,31.2,24.5,30.05,ENE,75,3.0,7.0,76,0.00,,,0.00,Weather View 32 v70,2013-03-23 13:59:00,
2013-03-23 10:04:00,31.2,24.5,30.05,East,79,0.0,7.0,76,0.00,,,0.00,Weather View 32 v70,2013-03-23 14:04:00,
2013-03-23 10:09:00,31.3,24.3,30.05,South,182,4.0,7.0,75,0.00,,,0.00,Weather View 32 v70,2013-03-23 14:09:00,
2013-03-23 10:15:00,31.0,23.4,30.05,NW,310,0.0,7.0,73,0.00,,,0.00,Weather View 32 v70,2013-03-23 14:15:00,
2013-03-23 10:20:00,30.8,23.5,30.05,NNE,28,0.0,7.0,74,0.00,,,0.00,Weather View 32 v70,2013-03-23 14:20:00,
2013-03-23 10:25:00,30.8,23.8,30.05,NNE,26,0.0,7.0,75,0.00,,,0.00,Weather View 32 v70,2013-03-23 14:25:00,
2013-03-23 10:30:00,30.7,23.7,30.05,NNE,27,0.0,7.0,75,0.00,,,0.00,Weather View 32 v70,2013-03-23 14:30:00,
2013-03-23 10:35:00,30.9,24.2,30.05,NNE,24,2.0,6.0,76,0.00,,,0.00,Weather View 32 v70,2013-03-23 14:35:00,
2013-03-23 10:40:00,30.9,23.9,30.06,NNE,24,0.0,6.0,75,0.00,,,0.00,Weather View 32 v70,2013-03-23 14:40:00,
2013-03-23 10:45:00,30.9,23.6,30.06,NNE,25,0.0,6.0,74,0.00,,,0.00,Weather View 32 v70,2013-03-23 14:45:00,
2013-03-23 10:50:00,30.8,23.5,30.06,NNE,25,0.0,6.0,74,0.00,,,0.00,Weather View 32 v70,2013-03-23 14:50:00,
2013-03-23 10:55:00,30.8,23.5,30.06,ENE,74,0.0,6.0,74,0.00,,,0.00,Weather View 32 v70,2013-03-23 14:55:00,
2013-03-23 11:00:00,31.0,24.3,30.06,ENE,74,0.0,6.0,76,0.00,,,0.00,Weather View 32 v70,2013-03-23 15:00:00,
2013-03-23 11:05:00,31.3,24.3,30.06,ENE,74,0.0,6.0,75,0.00,,,0.00,Weather View 32 v70,2013-03-23 15:05:00,
2013-03-23 11:10:00,31.4,23.7,30.06,ENE,74,0.0,6.0,73,0.00,,,0.00,Weather View 32 v70,2013-03-23 15:10:00,
2013-03-23 11:15:00,31.4,23.7,30.06,ENE,74,0.0,5.0,73,0.00,,,0.00,Weather View 32 v70,2013-03-23 15:15:00,
2013-03-23 11:20:00,31.5,23.8,30.06,ENE,71,0.0,5.0,73,0.00,,,0.00,Weather View 32 v70,2013-03-23 15:20:00,
2013-03-23 11:25:00,31.5,23.8,30.06,ENE,72,0.0,5.0,73,0.00,,,0.00,Weather View 32 v70,2013-03-23 15:25:00,
2013-03-23 11:30:00,31.3,23.6,30.06,ENE,74,3.0,5.0,73,0.00,,,0.00,Weather View 32 v70,2013-03-23 15:30:00,
2013-03-23 11:35:00,31.2,23.6,30.07,ENE,74,2.0,5.0,73,0.00,,,0.00,Weather View 32 v70,2013-03-23 15:35:00,
2013-03-23 11:40:00,31.2,23.6,30.07,ENE,74,0.0,5.0,73,0.00,,,0.00,Weather View 32 v70,2013-03-23 15:40:00,
2013-03-23 11:45:00,31.3,23.6,30.07,ENE,74,0.0,5.0,73,0.00,,,0.00,Weather View 32 v70,2013-03-23 15:45:00,
2013-03-23 11:50:00,31.5,24.5,30.07,ENE,74,3.0,5.0,75,0.00,,,0.00,Weather View 32 v70,2013-03-23 15:50:00,
2013-03-23 11:55:00,31.7,24.0,30.07,ENE,74,0.0,4.0,73,0.00,,,0.00,Weather View 32 v70,2013-03-23 15:55:00,
2013-03-23 12:00:00,31.7,24.0,30.07,ENE,74,0.0,4.0,73,0.00,,,0.00,Weather View 32 v70,2013-03-23 16:00:00,
2013-03-23 12:05:00,31.8,24.1,30.07,ENE,74,0.0,4.0,73,0.00,,,0.00,Weather View 32 v70,2013-03-23 16:05:00,
2013-03-23 12:10:00,31.9,24.2,30.07,North,360,0.0,4.0,73,0.00,,,0.00,Weather View 32 v70,2013-03-23 16:10:00,
2013-03-23 12:15:00,31.8,24.1,30.07,North,360,0.0,4.0,73,0.00,,,0.00,Weather View 32 v70,2013-03-23 16:15:00,
2013-03-23 12:20:00,31.9,24.6,30.07,North,360,0.0,4.0,74,0.00,,,0.00,Weather View 32 v70,2013-03-23 16:20:00,
2013-03-23 12:25:00,32.1,24.4,30.07,North,360,0.0,4.0,73,0.00,,,0.00,Weather View 32 v70,2013-03-23 16:25:00,
2013-03-23 12:30:00,32.2,24.5,30.07,North,360,0.0,4.0,73,0.00,,,0.00,Weather View 32 v70,2013-03-23 16:30:00,
2013-03-23 12:35:00,32.0,24.0,30.07,WNW,284,0.0,4.0,72,0.00,,,0.00,Weather View 32 v70,2013-03-23 16:35:00,
2013-03-23 12:40:00,31.9,24.2,30.07,WNW,284,0.0,4.0,73,0.00,,,0.00,Weather View 32 v70,2013-03-23 16:40:00,
2013-03-23 12:45:00,31.9,24.2,30.07,WNW,289,0.0,4.0,73,0.00,,,0.00,Weather View 32 v70,2013-03-23 16:45:00,
2013-03-23 12:50:00,32.1,24.7,30.07,WNW,288,0.0,4.0,74,0.00,,,0.00,Weather View 32 v70,2013-03-23 16:50:00,
2013-03-23 12:55:00,32.3,24.3,30.07,WNW,303,0.0,4.0,72,0.00,,,0.00,Weather View 32 v70,2013-03-23 16:55:00,
2013-03-23 13:00:00,32.3,24.3,30.07,NW,314,1.0,4.0,72,0.00,,,0.00,Weather View 32 v70,2013-03-23 17:00:00,
2013-03-23 13:05:00,32.3,24.6,30.07,NW,314,0.0,4.0,73,0.00,,,0.00,Weather View 32 v70,2013-03-23 17:05:00,
2013-03-23 13:10:00,32.4,24.7,30.07,NW,314,0.0,4.0,73,0.00,,,0.00,Weather View 32 v70,2013-03-23 17:10:00,
2013-03-23 13:15:00,32.6,24.9,30.06,NE,36,0.0,5.0,73,0.00,,,0.00,Weather View 32 v70,2013-03-23 17:15:00,
2013-03-23 13:20:00,32.5,24.5,30.06,NE,36,0.0,5.0,72,0.00,,,0.00,Weather View 32 v70,2013-03-23 17:20:00,
2013-03-23 13:25:00,32.8,25.4,30.07,NE,37,3.0,5.0,74,0.00,,,0.00,Weather View 32 v70,2013-03-23 17:25:00,
2013-03-23 13:30:00,32.8,24.8,30.07,North,5,0.0,5.0,72,0.00,,,0.00,Weather View 32 v70,2013-03-23 17:30:00,
2013-03-23 13:35:00,33.0,25.3,30.07,NW,313,0.0,6.0,73,0.00,,,0.00,Weather View 32 v70,2013-03-23 17:35:00,
2013-03-23 13:40:00,33.0,25.0,30.07,ENE,63,0.0,6.0,72,0.00,,,0.00,Weather View 32 v70,2013-03-23 17:40:00,
2013-03-23 13:45:00,33.0,25.0,30.07,ENE,61,0.0,6.0,72,0.00,,,0.00,Weather View 32 v70,2013-03-23 17:45:00,
2013-03-23 13:50:00,33.2,25.1,30.07,NNW,338,1.0,6.0,72,0.00,,,0.00,Weather View 32 v70,2013-03-23 17:50:00,
2013-03-23 13:55:00,33.4,25.0,30.07,NNW,345,0.0,6.0,71,0.00,,,0.00,Weather View 32 v70,2013-03-23 17:55:00,
2013-03-23 14:00:00,33.7,25.6,30.07,ENE,74,3.0,6.0,72,0.00,,,0.00,Weather View 32 v70,2013-03-23 18:00:00,
2013-03-23 14:05:00,34.0,25.2,30.06,ENE,74,1.0,6.0,70,0.00,,,0.00,Weather View 32 v70,2013-03-23 18:05:00,
2013-03-23 14:10:00,34.4,25.3,30.06,NE,41,3.0,6.0,69,0.00,,,0.00,Weather View 32 v70,2013-03-23 18:10:00,
2013-03-23 14:15:00,34.4,24.9,30.06,NNE,33,4.0,6.0,68,0.00,,,0.00,Weather View 32 v70,2013-03-23 18:15:00,
2013-03-23 14:20:00,34.4,25.6,30.06,NNE,26,1.0,6.0,70,0.00,,,0.00,Weather View 32 v70,2013-03-23 18:20:00,
2013-03-23 14:25:00,34.6,25.1,30.06,WSW,250,5.0,6.0,68,0.00,,,0.00,Weather View 32 v70,2013-03-23 18:25:00,
2013-03-23 14:30:00,34.7,24.9,30.06,NW,319,3.0,6.0,67,0.00,,,0.00,Weather View 32 v70,2013-03-23 18:30:00,
2013-03-23 14:35:00,34.8,25.3,30.06,NE,44,0.0,5.0,68,0.00,,,0.00,Weather View 32 v70,2013-03-23 18:35:00,
2013-03-23 14:40:00,35.0,24.8,30.05,NE,51,3.0,5.0,66,0.00,,,0.00,Weather View 32 v70,2013-03-23 18:40:00,
2013-03-23 14:45:00,34.8,24.6,30.05,NNW,345,0.0,6.0,66,0.00,,,0.00,Weather View 32 v70,2013-03-23 18:45:00,
2013-03-23 14:50:00,34.9,25.0,30.05,NE,55,0.0,6.0,67,0.00,,,0.00,Weather View 32 v70,2013-03-23 18:50:00,
2013-03-23 14:59:00,35.1,24.9,30.05,NNW,338,3.0,6.0,66,0.00,,,0.00,Weather View 32 v70,2013-03-23 18:59:00,
2013-03-23 15:04:00,35.2,24.6,30.05,NNW,327,3.0,6.0,65,0.00,,,0.00,Weather View 32 v70,2013-03-23 19:04:00,
2013-03-23 15:09:00,35.1,24.5,30.05,NNW,334,0.0,6.0,65,0.00,,,0.00,Weather View 32 v70,2013-03-23 19:09:00,
2013-03-23 15:14:00,35.3,25.8,30.05,NNW,327,0.0,6.0,68,0.00,,,0.00,Weather View 32 v70,2013-03-23 19:14:00,
2013-03-23 15:19:00,36.0,25.4,30.04,SE,136,0.0,6.0,65,0.00,,,0.00,Weather View 32 v70,2013-03-23 19:19:00,
2013-03-23 15:24:00,36.3,25.7,30.04,ENE,71,0.0,6.0,65,0.00,,,0.00,Weather View 32 v70,2013-03-23 19:24:00,
2013-03-23 15:29:00,36.6,26.3,30.05,NNW,344,0.0,6.0,66,0.00,,,0.00,Weather View 32 v70,2013-03-23 19:29:00,
2013-03-23 15:34:00,36.8,25.4,30.04,ESE,122,1.0,6.0,63,0.00,,,0.00,Weather View 32 v70,2013-03-23 19:34:00,
2013-03-23 15:39:00,37.0,25.9,30.04,NNE,17,0.0,6.0,64,0.00,,,0.00,Weather View 32 v70,2013-03-23 19:39:00,
2013-03-23 15:44:00,37.1,26.0,30.04,East,84,0.0,6.0,64,0.00,,,0.00,Weather View 32 v70,2013-03-23 19:44:00,
2013-03-23 15:49:00,37.4,25.9,30.04,NW,306,2.0,6.0,63,0.00,,,0.00,Weather View 32 v70,2013-03-23 19:49:00,
2013-03-23 15:54:00,37.7,25.8,30.04,WSW,252,4.0,6.0,62,0.00,,,0.00,Weather View 32 v70,2013-03-23 19:54:00,
2013-03-23 15:59:00,38.2,27.1,30.03,WNW,297,2.0,6.0,64,0.00,,,0.00,Weather View 32 v70,2013-03-23 19:59:00,
2013-03-23 16:04:00,38.6,26.3,30.04,WNW,296,0.0,6.0,61,0.00,,,0.00,Weather View 32 v70,2013-03-23 20:04:00,
2013-03-23 16:09:00,37.8,25.5,30.03,ESE,107,0.0,6.0,61,0.00,,,0.00,Weather View 32 v70,2013-03-23 20:09:00,
2013-03-23 16:14:00,37.0,25.2,30.04,NNW,335,0.0,6.0,62,0.00,,,0.00,Weather View 32 v70,2013-03-23 20:14:00,
2013-03-23 16:20:00,37.1,26.0,30.03,East,80,0.0,6.0,64,0.00,,,0.00,Weather View 32 v70,2013-03-23 20:20:00,
2013-03-23 16:25:00,37.3,25.5,30.04,NE,46,1.0,6.0,62,0.00,,,0.00,Weather View 32 v70,2013-03-23 20:25:00,
2013-03-23 16:30:00,36.7,24.5,30.04,NNW,328,0.0,6.0,61,0.00,,,0.00,Weather View 32 v70,2013-03-23 20:30:00,
2013-03-23 16:35:00,36.3,24.9,30.04,NNW,328,0.0,6.0,63,0.00,,,0.00,Weather View 32 v70,2013-03-23 20:35:00,
2013-03-23 16:40:00,36.0,24.6,30.04,NNW,328,1.0,6.0,63,0.00,,,0.00,Weather View 32 v70,2013-03-23 20:40:00,
2013-03-23 16:45:00,35.9,24.9,30.04,North,360,4.0,6.0,64,0.00,,,0.00,Weather View 32 v70,2013-03-23 20:45:00,
2013-03-23 16:50:00,35.7,25.1,30.05,North,355,2.0,9.0,65,0.00,,,0.00,Weather View 32 v70,2013-03-23 20:50:00,
2013-03-23 16:55:00,35.5,24.9,30.04,WNW,288,0.0,9.0,65,0.00,,,0.00,Weather View 32 v70,2013-03-23 20:55:00,
2013-03-23 17:00:00,35.8,25.5,30.03,WNW,288,0.0,9.0,66,0.00,,,0.00,Weather View 32 v70,2013-03-23 21:00:00,
2013-03-23 17:05:00,36.6,25.9,30.04,NW,304,0.0,9.0,65,0.00,,,0.00,Weather View 32 v70,2013-03-23 21:05:00,
2013-03-23 17:10:00,37.4,25.9,30.03,West,265,2.0,9.0,63,0.00,,,0.00,Weather View 32 v70,2013-03-23 21:10:00,
2013-03-23 17:15:00,37.7,25.4,30.04,West,268,0.0,9.0,61,0.00,,,0.00,Weather View 32 v70,2013-03-23 21:15:00,
2013-03-23 17:20:00,38.1,26.2,30.04,West,277,0.0,9.0,62,0.00,,,0.00,Weather View 32 v70,2013-03-23 21:20:00,
2013-03-23 17:25:00,38.3,25.6,30.04,WSW,245,1.0,9.0,60,0.00,,,0.00,Weather View 32 v70,2013-03-23 21:25:00,
2013-03-23 17:30:00,38.3,26.0,30.05,West,267,0.0,9.0,61,0.00,,,0.00,Weather View 32 v70,2013-03-23 21:30:00,
2013-03-23 17:35:00,38.1,25.8,30.04,SW,232,0.0,9.0,61,0.00,,,0.00,Weather View 32 v70,2013-03-23 21:35:00,
2013-03-23 17:40:00,38.1,25.8,30.05,NNW,333,5.0,9.0,61,0.00,,,0.00,Weather View 32 v70,2013-03-23 21:40:00,
2013-03-23 17:45:00,37.9,26.0,30.05,NW,319,0.0,9.0,62,0.00,,,0.00,Weather View 32 v70,2013-03-23 21:45:00,
2013-03-23 17:50:00,37.7,25.1,30.04,NW,319,0.0,7.0,60,0.00,,,0.00,Weather View 32 v70,2013-03-23 21:50:00,
2013-03-23 17:55:00,37.4,25.2,30.04,NW,323,0.0,7.0,61,0.00,,,0.00,Weather View 32 v70,2013-03-23 21:55:00,
2013-03-23 18:00:00,37.2,25.0,30.03,NNE,26,0.0,7.0,61,0.00,,,0.00,Weather View 32 v70,2013-03-23 22:00:00,
2013-03-23 18:05:00,37.0,24.8,30.03,NNE,23,1.0,7.0,61,0.00,,,0.00,Weather View 32 v70,2013-03-23 22:05:00,
2013-03-23 18:10:00,36.8,25.0,30.03,NW,310,0.0,7.0,62,0.00,,,0.00,Weather View 32 v70,2013-03-23 22:10:00,
2013-03-23 18:15:00,36.6,24.8,30.03,NW,310,0.0,7.0,62,0.00,,,0.00,Weather View 32 v70,2013-03-23 22:15:00,
2013-03-23 18:20:00,36.5,24.7,30.03,NW,312,0.0,7.0,62,0.00,,,0.00,Weather View 32 v70,2013-03-23 22:20:00,
2013-03-23 18:25:00,36.4,25.0,30.03,NW,311,0.0,7.0,63,0.00,,,0.00,Weather View 32 v70,2013-03-23 22:25:00,
2013-03-23 18:30:00,36.3,24.9,30.03,NW,306,0.0,7.0,63,0.00,,,0.00,Weather View 32 v70,2013-03-23 22:30:00,
2013-03-23 18:35:00,36.1,24.7,30.03,WNW,302,0.0,7.0,63,0.00,,,0.00,Weather View 32 v70,2013-03-23 22:35:00,
2013-03-23 18:40:00,36.0,25.0,30.03,WNW,302,0.0,7.0,64,0.00,,,0.00,Weather View 32 v70,2013-03-23 22:40:00,
2013-03-23 18:45:00,35.7,24.3,30.03,NNW,339,0.0,7.0,63,0.00,,,0.00,Weather View 32 v70,2013-03-23 22:45:00,
2013-03-23 18:50:00,35.6,24.6,30.03,NNW,339,0.0,7.0,64,0.00,,,0.00,Weather View 32 v70,2013-03-23 22:50:00,
2013-03-23 18:55:00,35.4,24.8,30.03,NNW,339,0.0,7.0,65,0.00,,,0.00,Weather View 32 v70,2013-03-23 22:55:00,
2013-03-23 19:00:00,35.2,24.6,30.03,WNW,295,1.0,7.0,65,0.00,,,0.00,Weather View 32 v70,2013-03-23 23:00:00,
2013-03-23 19:05:00,35.1,24.5,30.03,WNW,303,0.0,7.0,65,0.00,,,0.00,Weather View 32 v70,2013-03-23 23:05:00,
2013-03-23 19:10:00,34.9,25.0,30.03,WNW,303,2.0,7.0,67,0.00,,,0.00,Weather View 32 v70,2013-03-23 23:10:00,
2013-03-23 19:15:00,34.6,24.8,30.03,WNW,303,0.0,7.0,67,0.00,,,0.00,Weather View 32 v70,2013-03-23 23:15:00,
2013-03-23 19:20:00,34.4,24.6,30.03,WNW,300,0.0,7.0,67,0.00,,,0.00,Weather View 32 v70,2013-03-23 23:20:00,
2013-03-23 19:25:00,34.2,24.7,30.03,WNW,300,0.0,7.0,68,0.00,,,0.00,Weather View 32 v70,2013-03-23 23:25:00,
2013-03-23 19:30:00,34.0,24.9,30.03,WNW,301,0.0,7.0,69,0.00,,,0.00,Weather View 32 v70,2013-03-23 23:30:00,
2013-03-23 19:35:00,33.6,24.9,30.03,WNW,301,0.0,7.0,70,0.00,,,0.00,Weather View 32 v70,2013-03-23 23:35:00,
2013-03-23 19:40:00,33.3,24.6,30.03,WNW,300,0.0,7.0,70,0.00,,,0.00,Weather View 32 v70,2013-03-23 23:40:00,
2013-03-23 19:45:00,33.0,24.6,30.03,WNW,301,0.0,5.0,71,0.00,,,0.00,Weather View 32 v70,2013-03-23 23:45:00,
2013-03-23 19:50:00,32.8,24.4,30.03,WNW,301,0.0,5.0,71,0.00,,,0.00,Weather View 32 v70,2013-03-23 23:50:00,
2013-03-23 19:55:00,32.4,24.4,30.03,WNW,301,0.0,5.0,72,0.00,,,0.00,Weather View 32 v70,2013-03-23 23:55:00,
2013-03-23 20:00:00,32.0,24.3,30.03,WNW,301,0.0,5.0,73,0.00,,,0.00,Weather View 32 v70,2013-03-24 00:00:00,
2013-03-23 20:05:00,31.7,24.0,30.03,WNW,301,0.0,4.0,73,0.00,,,0.00,Weather View 32 v70,2013-03-24 00:05:00,
2013-03-23 20:10:00,31.5,23.8,30.03,WNW,300,0.0,4.0,73,0.00,,,0.00,Weather View 32 v70,2013-03-24 00:10:00,
2013-03-23 20:15:00,31.2,23.9,30.03,WNW,300,0.0,4.0,74,0.00,,,0.00,Weather View 32 v70,2013-03-24 00:15:00,
2013-03-23 20:20:00,30.8,23.8,30.03,WNW,301,0.0,3.0,75,0.00,,,0.00,Weather View 32 v70,2013-03-24 00:20:00,
2013-03-23 20:25:00,30.6,23.9,30.03,NW,315,0.0,5.0,76,0.00,,,0.00,Weather View 32 v70,2013-03-24 00:25:00,
2013-03-23 20:30:00,30.5,23.8,30.03,NW,314,0.0,5.0,76,0.00,,,0.00,Weather View 32 v70,2013-03-24 00:30:00,
2013-03-23 20:35:00,30.3,23.6,30.03,NW,315,0.0,5.0,76,0.00,,,0.00,Weather View 32 v70,2013-03-24 00:35:00,
2013-03-23 20:40:00,30.1,23.4,30.03,NW,315,0.0,5.0,76,0.00,,,0.00,Weather View 32 v70,2013-03-24 00:40:00,
2013-03-23 20:45:00,29.8,23.5,30.03,NW,314,0.0,5.0,77,0.00,,,0.00,Weather View 32 v70,2013-03-24 00:45:00,
2013-03-23 20:50:00,29.6,23.6,30.04,NW,315,0.0,5.0,78,0.00,,,0.00,Weather View 32 v70,2013-03-24 00:50:00,
2013-03-23 20:55:00,29.4,23.4,30.04,NW,314,0.0,5.0,78,0.00,,,0.00,Weather View 32 v70,2013-03-24 00:55:00,
2013-03-23 21:00:00,29.3,23.6,30.05,NW,315,0.0,5.0,79,0.00,,,0.00,Weather View 32 v70,2013-03-24 01:00:00,
2013-03-23 21:05:00,29.2,23.5,30.05,NW,315,0.0,5.0,79,0.00,,,0.00,Weather View 32 v70,2013-03-24 01:05:00,
2013-03-23 21:10:00,29.0,23.3,30.04,NW,315,0.0,5.0,79,0.00,,,0.00,Weather View 32 v70,2013-03-24 01:10:00,
2013-03-23 21:15:00,28.8,23.1,30.05,NW,315,0.0,5.0,79,0.00,,,0.00,Weather View 32 v70,2013-03-24 01:15:00,
2013-03-23 21:20:00,28.5,23.1,30.05,NW,315,0.0,5.0,80,0.00,,,0.00,Weather View 32 v70,2013-03-24 01:20:00,
2013-03-23 21:25:00,28.4,23.3,30.05,NW,315,0.0,0.0,81,0.00,,,0.00,Weather View 32 v70,2013-03-24 01:25:00,
2013-03-23 21:30:00,28.1,23.0,30.05,NW,314,0.0,0.0,81,0.00,,,0.00,Weather View 32 v70,2013-03-24 01:30:00,
2013-03-23 21:35:00,27.8,22.7,30.05,NW,315,0.0,0.0,81,0.00,,,0.00,Weather View 32 v70,2013-03-24 01:35:00,
2013-03-23 21:40:00,27.5,22.7,30.05,NW,315,0.0,0.0,82,0.00,,,0.00,Weather View 32 v70,2013-03-24 01:40:00,
2013-03-23 21:45:00,27.3,22.5,30.05,NW,315,0.0,0.0,82,0.00,,,0.00,Weather View 32 v70,2013-03-24 01:45:00,
2013-03-23 21:50:00,27.0,22.5,30.05,NW,314,0.0,0.0,83,0.00,,,0.00,Weather View 32 v70,2013-03-24 01:50:00,
2013-03-23 21:55:00,26.7,22.2,30.05,NW,315,0.0,0.0,83,0.00,,,0.00,Weather View 32 v70,2013-03-24 01:55:00,
2013-03-23 22:00:00,26.4,22.2,30.05,NW,315,0.0,0.0,84,0.00,,,0.00,Weather View 32 v70,2013-03-24 02:00:00,
2013-03-23 22:05:00,26.2,22.0,30.05,NW,314,0.0,0.0,84,0.00,,,0.00,Weather View 32 v70,2013-03-24 02:05:00,
2013-03-23 22:10:00,26.0,22.1,30.05,NW,315,0.0,0.0,85,0.00,,,0.00,Weather View 32 v70,2013-03-24 02:10:00,
2013-03-23 22:15:00,26.0,22.4,30.05,NW,315,0.0,0.0,86,0.00,,,0.00,Weather View 32 v70,2013-03-24 02:15:00,
2013-03-23 22:20:00,26.1,22.8,30.05,NW,315,0.0,0.0,87,0.00,,,0.00,Weather View 32 v70,2013-03-24 02:20:00,
2013-03-23 22:25:00,26.1,22.8,30.05,NW,315,0.0,0.0,87,0.00,,,0.00,Weather View 32 v70,2013-03-24 02:25:00,
2013-03-23 22:30:00,26.0,22.7,30.04,NW,315,0.0,0.0,87,0.00,,,0.00,Weather View 32 v70,2013-03-24 02:30:00,
2013-03-23 22:35:00,26.0,22.7,30.05,NW,314,0.0,0.0,87,0.00,,,0.00,Weather View 32 v70,2013-03-24 02:35:00,
2013-03-23 22:40:00,25.9,22.6,30.05,NW,315,0.0,0.0,87,0.00,,,0.00,Weather View 32 v70,2013-03-24 02:40:00,
2013-03-23 22:45:00,26.0,22.9,30.04,NW,315,0.0,0.0,88,0.00,,,0.00,Weather View 32 v70,2013-03-24 02:45:00,
2013-03-23 22:51:00,26.0,22.9,30.04,NW,315,0.0,0.0,88,0.00,,,0.00,Weather View 32 v70,2013-03-24 02:51:00,
2013-03-23 22:56:00,26.2,23.4,30.04,NW,315,0.0,0.0,89,0.00,,,0.00,Weather View 32 v70,2013-03-24 02:56:00,
2013-03-23 23:01:00,26.3,23.5,30.04,NW,315,0.0,0.0,89,0.00,,,0.00,Weather View 32 v70,2013-03-24 03:01:00,
2013-03-23 23:06:00,26.5,24.0,30.03,NW,315,0.0,0.0,90,0.00,,,0.00,Weather View 32 v70,2013-03-24 03:06:00,
2013-03-23 23:11:00,26.8,24.0,30.03,NW,314,0.0,0.0,89,0.00,,,0.00,Weather View 32 v70,2013-03-24 03:11:00,
2013-03-23 23:16:00,27.0,24.2,30.03,NW,315,0.0,0.0,89,0.00,,,0.00,Weather View 32 v70,2013-03-24 03:16:00,
2013-03-23 23:21:00,27.2,24.4,30.03,NW,314,0.0,0.0,89,0.00,,,0.00,Weather View 32 v70,2013-03-24 03:21:00,
2013-03-23 23:26:00,27.4,24.3,30.03,NW,314,0.0,0.0,88,0.00,,,0.00,Weather View 32 v70,2013-03-24 03:26:00,
2013-03-23 23:31:00,27.5,24.4,30.03,NW,315,0.0,0.0,88,0.00,,,0.00,Weather View 32 v70,2013-03-24 03:31:00,
2013-03-23 23:36:00,27.4,24.0,30.03,NW,315,0.0,0.0,87,0.00,,,0.00,Weather View 32 v70,2013-03-24 03:36:00,
2013-03-23 23:41:00,27.2,23.8,30.03,NW,315,0.0,0.0,87,0.00,,,0.00,Weather View 32 v70,2013-03-24 03:41:00,
2013-03-23 23:46:00,26.9,23.3,30.03,NW,315,0.0,0.0,86,0.00,,,0.00,Weather View 32 v70,2013-03-24 03:46:00,
2013-03-23 23:51:00,26.6,23.0,30.02,NW,315,0.0,0.0,86,0.00,,,0.00,Weather View 32 v70,2013-03-24 03:51:00,
2013-03-23 23:56:00,26.3,23.0,30.02,NW,314,0.0,0.0,87,0.00,,,0.00,Weather View 32 v70,2013-03-24 03:56:00,